createdAt,value
2023-05-05T00:01:08.766Z,60.40
2023-05-05T00:03:35.889Z,59.67
2023-05-05T00:06:02.916Z,60.57
2023-05-05T00:08:29.781Z,59.62
2023-05-05T00:10:57.387Z,60.59
2023-05-05T00:13:24.303Z,61.47
2023-05-05T00:15:53.456Z,61.31
2023-05-05T00:18:21.219Z,60.57
2023-05-05T00:20:48.152Z,60.31
2023-05-05T00:23:15.693Z,61.24
2023-05-05T00:25:42.191Z,60.80
2023-05-05T00:28:08.758Z,61.26
2023-05-05T00:30:37.186Z,61.52
2023-05-05T00:33:04.160Z,61.17
2023-05-05T00:35:30.686Z,61.73
2023-05-05T00:37:57.159Z,61.20
2023-05-05T00:40:25.029Z,61.90
2023-05-05T00:42:53.484Z,61.43
2023-05-05T00:45:20.327Z,61.69
2023-05-05T00:47:54.673Z,61.85
2023-05-05T00:50:26.155Z,62.11
2023-05-05T00:52:55.291Z,62.47
2023-05-05T00:55:22.178Z,62.72
2023-05-05T00:57:49.218Z,62.92
2023-05-05T01:00:16.757Z,62.10
2023-05-05T01:02:44.708Z,62.91
2023-05-05T01:05:14.259Z,62.89
2023-05-05T01:07:43.576Z,62.26
2023-05-05T01:10:32.041Z,62.96
2023-05-05T01:13:25.688Z,62.76
2023-05-05T01:16:00.918Z,62.75
2023-05-05T01:18:36.740Z,62.43
2023-05-05T01:21:03.214Z,62.81
2023-05-05T01:24:08.154Z,62.49
2023-05-05T01:26:53.789Z,63.67
2023-05-05T01:29:31.831Z,63.95
2023-05-05T01:32:15.795Z,64.63
2023-05-05T01:34:53.426Z,65.14
2023-05-05T01:37:24.486Z,65.69
2023-05-05T01:39:56.281Z,66.10
2023-05-05T01:42:25.197Z,66.46
2023-05-05T01:44:54.178Z,66.44
2023-05-05T01:47:23.057Z,66.77
2023-05-05T01:49:50.578Z,66.65
2023-05-05T01:52:18.221Z,67.22
2023-05-05T01:54:46.868Z,67.12
2023-05-05T01:57:15.556Z,68.09
2023-05-05T01:59:42.351Z,68.28
2023-05-05T02:02:13.527Z,68.54
2023-05-05T02:04:43.639Z,68.51
2023-05-05T02:07:12.672Z,69.22
2023-05-05T02:09:40.717Z,69.17
2023-05-05T02:12:08.623Z,69.03
2023-05-05T02:14:36.892Z,69.63
2023-05-05T02:17:04.124Z,69.95
2023-05-05T02:19:37.918Z,69.98
2023-05-05T02:22:04.436Z,72.87
2023-05-05T02:24:30.937Z,74.83
2023-05-05T02:27:00.257Z,75.41
2023-05-05T02:29:34.684Z,75.96
2023-05-05T02:32:14.228Z,75.23
2023-05-05T02:34:43.448Z,76.43
2023-05-05T02:37:19.866Z,76.62
2023-05-05T02:40:02.601Z,76.07
2023-05-05T02:42:36.759Z,76.71
2023-05-05T02:45:13.507Z,76.67
2023-05-05T02:47:42.977Z,76.80
2023-05-05T02:50:10.590Z,77.62
2023-05-05T02:52:41.836Z,77.53
2023-05-05T02:55:09.797Z,77.64
2023-05-05T02:57:55.804Z,76.91
2023-05-05T03:00:50.381Z,77.56
2023-05-05T03:03:28.639Z,77.59
2023-05-05T03:06:16.588Z,77.54
2023-05-05T03:08:50.957Z,78.00
2023-05-05T03:11:29.108Z,78.33
2023-05-05T03:14:05.436Z,78.43
2023-05-05T03:16:32.443Z,77.26
2023-05-05T03:19:00.615Z,78.56
2023-05-05T03:21:27.792Z,79.08
2023-05-05T03:23:54.467Z,79.02
2023-05-05T03:26:22.136Z,78.72
2023-05-05T03:28:48.726Z,78.41
2023-05-05T03:31:21.052Z,79.08
2023-05-05T03:33:51.946Z,79.35
2023-05-05T03:36:22.099Z,79.06
2023-05-05T03:38:48.831Z,78.82
2023-05-05T03:41:15.905Z,79.39
2023-05-05T03:43:42.435Z,79.36
2023-05-05T03:46:10.160Z,79.46
2023-05-05T03:48:36.835Z,79.35
2023-05-05T03:51:03.443Z,79.32
2023-05-05T03:53:32.344Z,79.57
2023-05-05T03:56:00.708Z,79.37
2023-05-05T03:58:27.331Z,79.66
2023-05-05T04:00:53.925Z,79.92
2023-05-05T04:03:20.997Z,80.27
2023-05-05T04:05:47.933Z,79.96
2023-05-05T04:08:14.561Z,79.88
2023-05-05T04:10:41.056Z,80.60
2023-05-05T04:13:08.613Z,80.03
2023-05-05T04:15:35.957Z,80.46
2023-05-05T04:18:04.527Z,80.37
2023-05-05T04:20:31.238Z,80.44
2023-05-05T04:22:57.801Z,80.56
2023-05-05T04:25:24.496Z,81.00
2023-05-05T04:27:51.087Z,80.91
2023-05-05T04:30:17.583Z,81.07
2023-05-05T04:32:44.749Z,81.07
2023-05-05T04:35:11.417Z,81.33
2023-05-05T04:37:38.189Z,81.22
2023-05-05T04:40:05.306Z,81.20
2023-05-05T04:42:33.519Z,81.33
2023-05-05T04:45:00.993Z,80.83
2023-05-05T04:47:29.238Z,81.00
2023-05-05T04:49:56.031Z,81.30
2023-05-05T04:52:22.700Z,81.29
2023-05-05T04:54:51.475Z,81.26
2023-05-05T04:57:17.902Z,81.20
2023-05-05T04:59:44.329Z,81.35
2023-05-05T05:02:10.849Z,81.22
2023-05-05T05:04:37.324Z,81.00
2023-05-05T05:07:03.747Z,81.64
2023-05-05T05:09:30.361Z,81.63
2023-05-05T05:12:03.031Z,81.50
2023-05-05T05:14:30.116Z,82.09
2023-05-05T05:16:56.623Z,81.84
2023-05-05T05:19:24.085Z,81.52
2023-05-05T05:21:51.028Z,81.89
2023-05-05T05:24:17.625Z,81.13
2023-05-05T05:26:44.158Z,80.06
2023-05-05T05:29:10.696Z,79.46
2023-05-05T05:31:37.252Z,79.45
2023-05-05T05:34:04.154Z,78.79
2023-05-05T05:36:31.703Z,78.12
2023-05-05T05:38:58.206Z,78.94
2023-05-05T05:41:25.676Z,78.98
2023-05-05T05:43:52.207Z,79.03
2023-05-05T05:46:19.251Z,79.03
2023-05-05T05:48:46.458Z,79.23
2023-05-05T05:51:13.514Z,78.64
2023-05-05T05:53:40.292Z,78.55
2023-05-05T05:56:08.970Z,78.56
2023-05-05T05:58:36.013Z,78.48
2023-05-05T06:01:03.903Z,78.58
2023-05-05T06:03:31.310Z,78.77
2023-05-05T06:05:59.174Z,78.68
2023-05-05T06:08:26.841Z,78.53
2023-05-05T06:10:54.786Z,78.01
2023-05-05T06:13:21.483Z,76.96
2023-05-05T06:15:50.846Z,77.04
2023-05-05T06:18:17.969Z,76.66
2023-05-05T06:20:44.810Z,75.53
2023-05-05T06:23:13.626Z,75.89
2023-05-05T06:25:44.846Z,74.85
2023-05-05T06:28:11.490Z,73.65
2023-05-05T06:30:37.938Z,72.80
2023-05-05T06:33:04.407Z,68.44
2023-05-05T06:35:30.868Z,64.66
2023-05-05T06:37:57.437Z,61.23
2023-05-05T06:40:23.866Z,59.77
2023-05-05T06:42:51.699Z,57.44
2023-05-05T06:45:23.067Z,59.30
2023-05-05T06:47:49.621Z,60.18
2023-05-05T06:50:16.192Z,60.41
2023-05-05T06:52:42.702Z,60.89
2023-05-05T06:55:09.922Z,60.47
2023-05-05T06:57:36.341Z,56.89
2023-05-05T07:00:05.691Z,55.56
2023-05-05T07:02:33.554Z,54.65
2023-05-05T07:05:11.106Z,53.60
2023-05-05T07:07:39.730Z,53.77
2023-05-05T07:10:07.577Z,51.63
2023-05-05T07:12:34.210Z,51.93
2023-05-05T07:15:04.853Z,50.21
2023-05-05T07:17:36.089Z,50.75
2023-05-05T07:20:02.983Z,51.29
2023-05-05T07:22:29.453Z,51.25
2023-05-05T07:24:56.014Z,51.08
2023-05-05T07:27:22.796Z,51.17
2023-05-05T07:29:50.655Z,53.41
2023-05-05T07:32:17.111Z,52.33
2023-05-05T07:34:43.621Z,50.70
2023-05-05T07:37:10.588Z,49.57
2023-05-05T07:39:37.066Z,48.17
2023-05-05T07:42:03.711Z,47.85
2023-05-05T07:44:30.580Z,46.41
2023-05-05T07:46:57.076Z,47.55
2023-05-05T07:49:23.535Z,45.00
2023-05-05T07:51:51.259Z,45.38
2023-05-05T07:54:18.027Z,45.77
2023-05-05T07:56:44.668Z,46.79
2023-05-05T07:59:11.846Z,46.99
2023-05-05T08:01:39.963Z,46.42
2023-05-05T08:04:06.540Z,44.74
2023-05-05T08:06:33.180Z,44.90
2023-05-05T08:09:00.865Z,44.18
2023-05-05T08:11:29.471Z,43.87
2023-05-05T08:13:56.390Z,42.03
2023-05-05T08:16:22.900Z,42.51
2023-05-05T08:18:51.960Z,41.23
2023-05-05T08:21:18.562Z,41.38
2023-05-05T08:23:45.112Z,41.14
2023-05-05T08:26:11.582Z,41.05
2023-05-05T08:28:38.089Z,40.40
2023-05-05T08:31:05.623Z,40.94
2023-05-05T08:33:32.693Z,40.20
2023-05-05T08:36:00.994Z,40.91
2023-05-05T08:38:29.607Z,42.46
2023-05-05T08:40:56.299Z,43.83
2023-05-05T08:43:23.965Z,44.37
2023-05-05T08:45:51.650Z,44.44
2023-05-05T08:48:22.545Z,45.61
2023-05-05T08:50:56.635Z,45.32
2023-05-05T08:54:00.629Z,46.18
2023-05-05T08:56:38.605Z,46.00
2023-05-05T08:59:05.918Z,45.63
2023-05-05T09:01:33.638Z,45.73
2023-05-05T09:04:00.621Z,46.92
2023-05-05T09:06:27.398Z,47.28
2023-05-05T09:08:54.413Z,47.15
2023-05-05T09:11:22.570Z,46.67
2023-05-05T09:13:49.715Z,47.26
2023-05-05T09:16:18.593Z,46.38
2023-05-05T09:18:45.586Z,47.19
2023-05-05T09:21:26.490Z,48.18
2023-05-05T09:24:10.895Z,47.42
2023-05-05T09:26:41.451Z,46.88
2023-05-05T09:29:07.988Z,47.65
2023-05-05T09:31:36.167Z,46.97
2023-05-05T09:34:14.126Z,46.26
2023-05-05T09:36:44.653Z,48.92
2023-05-05T09:39:13.486Z,48.00
2023-05-05T09:41:42.067Z,46.47
2023-05-05T09:44:08.873Z,47.75
2023-05-05T09:46:35.994Z,47.55
2023-05-05T09:49:17.991Z,48.94
2023-05-05T09:51:47.518Z,49.69
2023-05-05T09:54:24.841Z,50.27
2023-05-05T09:56:52.281Z,50.84
2023-05-05T09:59:19.280Z,50.24
2023-05-05T10:01:46.279Z,49.74
2023-05-05T10:04:30.125Z,50.08
2023-05-05T10:06:57.894Z,50.48
2023-05-05T10:09:26.102Z,50.18
2023-05-05T10:11:53.417Z,50.46
2023-05-05T10:14:20.407Z,50.63
2023-05-05T10:16:50.606Z,49.95
2023-05-05T10:19:20.410Z,57.40
2023-05-05T10:21:49.842Z,70.05
2023-05-05T10:24:30.488Z,71.34
2023-05-05T10:27:00.677Z,74.67
2023-05-05T10:29:46.006Z,74.95
2023-05-05T10:32:50.917Z,75.58
2023-05-05T10:35:16.474Z,78.59
2023-05-05T10:37:44.617Z,78.42
2023-05-05T10:40:14.010Z,76.93
2023-05-05T10:42:41.380Z,79.01
2023-05-05T10:45:08.551Z,79.25
2023-05-05T10:47:36.638Z,78.32
2023-05-05T10:50:13.923Z,79.89
2023-05-05T10:52:46.913Z,79.30
2023-05-05T10:55:17.653Z,81.28
2023-05-05T10:57:45.837Z,81.81
2023-05-05T11:00:40.178Z,82.13
2023-05-05T11:03:19.266Z,82.13
2023-05-05T11:06:03.868Z,82.14
2023-05-05T11:08:32.313Z,83.25
2023-05-05T11:10:59.553Z,82.93
2023-05-05T11:13:26.471Z,84.10
2023-05-05T11:15:54.327Z,84.13
2023-05-05T11:18:40.531Z,84.37
2023-05-05T11:21:15.293Z,84.59
2023-05-05T11:23:49.661Z,84.38
2023-05-05T11:26:18.570Z,84.08
2023-05-05T11:29:02.526Z,84.12
2023-05-05T11:31:30.869Z,84.75
2023-05-05T11:34:24.311Z,84.30
2023-05-05T11:36:52.209Z,83.78
2023-05-05T11:39:27.515Z,84.67
2023-05-05T11:42:06.594Z,84.42
2023-05-05T11:44:36.123Z,84.61
2023-05-05T11:47:05.307Z,82.62
2023-05-05T11:49:32.729Z,83.11
2023-05-05T11:52:04.304Z,85.24
2023-05-05T11:54:31.701Z,84.84
2023-05-05T11:57:02.898Z,85.31
2023-05-05T11:59:29.299Z,84.21
2023-05-05T12:01:55.916Z,86.29
2023-05-05T12:04:22.743Z,85.00
2023-05-05T12:06:49.551Z,87.17
2023-05-05T12:09:17.791Z,86.98
2023-05-05T12:11:51.339Z,85.57
2023-05-05T12:14:18.248Z,85.92
2023-05-05T12:17:07.069Z,85.14
2023-05-05T12:19:33.727Z,86.27
2023-05-05T12:22:04.471Z,85.28
2023-05-05T12:24:31.160Z,85.47
2023-05-05T12:27:10.886Z,85.59
2023-05-05T12:29:37.930Z,85.81
2023-05-05T12:32:04.690Z,85.87
2023-05-05T12:34:31.884Z,86.62
2023-05-05T12:36:58.675Z,86.49
2023-05-05T12:39:35.459Z,85.60
2023-05-05T12:42:06.272Z,86.10
2023-05-05T12:44:39.595Z,85.70
2023-05-05T12:47:06.971Z,85.52
2023-05-05T12:49:49.912Z,86.45
2023-05-05T12:52:16.749Z,84.99
2023-05-05T12:54:57.822Z,85.88
2023-05-05T12:57:25.391Z,85.99
2023-05-05T12:59:53.343Z,85.88
2023-05-05T13:02:20.815Z,84.41
2023-05-05T13:04:54.666Z,85.88
2023-05-05T13:07:21.914Z,85.99
2023-05-05T13:09:49.542Z,86.20
2023-05-05T13:12:17.857Z,85.50
2023-05-05T13:14:44.631Z,85.22
2023-05-05T13:17:11.941Z,85.60
2023-05-05T13:19:46.061Z,85.62
2023-05-05T13:22:13.473Z,85.19
2023-05-05T13:24:51.020Z,84.90
2023-05-05T13:27:19.627Z,85.04
2023-05-05T13:29:46.236Z,86.44
2023-05-05T13:32:12.770Z,85.24
2023-05-05T13:34:41.458Z,84.79
2023-05-05T13:37:08.612Z,86.20
2023-05-05T13:39:35.258Z,86.03
2023-05-05T13:42:01.708Z,85.17
2023-05-05T13:44:28.229Z,85.24
2023-05-05T13:46:54.821Z,85.45
2023-05-05T13:49:21.317Z,86.72
2023-05-05T13:51:47.913Z,85.94
2023-05-05T13:54:14.463Z,86.86
2023-05-05T13:56:41.043Z,85.60
2023-05-05T13:59:07.584Z,85.51
2023-05-05T14:01:34.197Z,85.47
2023-05-05T14:04:03.598Z,85.95
2023-05-05T14:06:31.273Z,86.54
2023-05-05T14:08:57.806Z,85.33
2023-05-05T14:11:24.316Z,86.19
2023-05-05T14:13:51.928Z,86.92
2023-05-05T14:16:18.665Z,87.08
2023-05-05T14:18:45.623Z,87.58
2023-05-05T14:21:12.420Z,85.36
2023-05-05T14:23:38.917Z,85.88
2023-05-05T14:26:05.441Z,85.93
2023-05-05T14:28:34.267Z,85.12
2023-05-05T14:31:00.748Z,84.03
2023-05-05T14:33:27.153Z,85.63
2023-05-05T14:35:53.589Z,85.87
2023-05-05T14:38:20.095Z,83.47
2023-05-05T14:40:46.565Z,82.62
2023-05-05T14:43:13.494Z,82.64
2023-05-05T14:45:39.973Z,83.34
2023-05-05T14:48:06.446Z,84.59
2023-05-05T14:50:32.923Z,85.34
2023-05-05T14:53:00.868Z,84.98
2023-05-05T14:55:27.349Z,84.42
2023-05-05T14:57:53.874Z,83.89
2023-05-05T15:00:20.524Z,82.66
2023-05-05T15:02:48.159Z,84.15
2023-05-05T15:05:15.021Z,84.69
2023-05-05T15:07:41.571Z,83.34
2023-05-05T15:10:08.343Z,82.99
2023-05-05T15:12:35.067Z,83.52
2023-05-05T15:15:01.844Z,83.71
2023-05-05T15:17:28.682Z,80.52
2023-05-05T15:19:55.219Z,79.67
2023-05-05T15:22:21.699Z,84.34
2023-05-05T15:24:48.167Z,83.41
2023-05-05T15:27:14.742Z,83.75
2023-05-05T15:29:44.021Z,83.42
2023-05-05T15:32:13.785Z,83.05
2023-05-05T15:34:40.561Z,80.91
2023-05-05T15:37:07.037Z,81.07
2023-05-05T15:39:33.454Z,82.12
2023-05-05T15:42:03.683Z,81.94
2023-05-05T15:44:30.778Z,82.54
2023-05-05T15:46:57.575Z,82.94
2023-05-05T15:49:24.072Z,83.92
2023-05-05T15:51:51.824Z,80.83
2023-05-05T15:54:18.250Z,81.37
2023-05-05T15:56:44.717Z,82.77
2023-05-05T15:59:13.228Z,80.38
2023-05-05T16:01:39.792Z,82.35
2023-05-05T16:04:06.565Z,82.68
2023-05-05T16:06:33.072Z,82.50
2023-05-05T16:09:00.271Z,82.56
2023-05-05T16:11:26.946Z,80.78
2023-05-05T16:13:53.718Z,79.63
2023-05-05T16:16:20.733Z,81.18
2023-05-05T16:18:47.461Z,81.88
2023-05-05T16:21:13.928Z,81.92
2023-05-05T16:23:40.536Z,80.96
2023-05-05T16:26:07.014Z,80.87
2023-05-05T16:28:34.283Z,81.53
2023-05-05T16:31:01.773Z,82.40
2023-05-05T16:33:28.760Z,81.20
2023-05-05T16:35:55.456Z,83.47
2023-05-05T16:38:23.096Z,81.63
2023-05-05T16:40:49.661Z,80.16
2023-05-05T16:43:16.194Z,81.25
2023-05-05T16:45:43.472Z,81.42
2023-05-05T16:48:10.055Z,79.71
2023-05-05T16:50:36.567Z,81.86
2023-05-05T16:53:03.074Z,79.77
2023-05-05T16:55:29.693Z,81.61
2023-05-05T16:57:56.185Z,80.49
2023-05-05T17:00:22.699Z,79.42
2023-05-05T17:02:49.582Z,81.62
2023-05-05T17:05:17.584Z,80.92
2023-05-05T17:07:44.192Z,80.76
2023-05-05T17:10:10.804Z,81.26
2023-05-05T17:12:37.378Z,82.54
2023-05-05T17:15:04.207Z,83.11
2023-05-05T17:17:30.828Z,82.99
2023-05-05T17:19:57.437Z,81.51
2023-05-05T17:22:23.982Z,80.96
2023-05-05T17:24:50.913Z,81.47
2023-05-05T17:27:17.364Z,83.65
2023-05-05T17:29:43.804Z,83.08
2023-05-05T17:32:10.474Z,83.79
2023-05-05T17:34:37.131Z,83.47
2023-05-05T17:37:03.608Z,82.65
2023-05-05T17:39:30.701Z,83.97
2023-05-05T17:41:57.141Z,82.86
2023-05-05T17:44:23.612Z,82.99
2023-05-05T17:46:50.186Z,83.96
2023-05-05T17:49:16.749Z,84.88
2023-05-05T17:51:43.194Z,84.83
2023-05-05T17:54:09.669Z,85.41
2023-05-05T17:56:36.811Z,83.16
2023-05-05T17:59:03.564Z,83.55
2023-05-05T18:01:30.083Z,83.41
2023-05-05T18:03:56.998Z,82.66
2023-05-05T18:06:23.463Z,82.46
2023-05-05T18:08:49.949Z,84.07
2023-05-05T18:11:16.508Z,83.64
2023-05-05T18:13:43.270Z,84.88
2023-05-05T18:16:09.821Z,83.94
2023-05-05T18:18:36.406Z,82.43
2023-05-05T18:21:02.938Z,83.30
2023-05-05T18:23:29.404Z,83.64
2023-05-05T18:25:55.784Z,83.34
2023-05-05T18:28:22.466Z,83.87
2023-05-05T18:30:48.932Z,85.20
2023-05-05T18:33:15.859Z,85.45
2023-05-05T18:35:42.310Z,85.34
2023-05-05T18:38:08.804Z,85.93
2023-05-05T18:40:35.256Z,86.51
2023-05-05T18:43:01.767Z,86.28
2023-05-05T18:45:28.269Z,86.41
2023-05-05T18:47:54.851Z,86.59
2023-05-05T18:50:21.428Z,85.43
2023-05-05T18:52:47.906Z,86.25
2023-05-05T18:55:14.440Z,86.53
2023-05-05T18:57:41.183Z,85.37
2023-05-05T19:00:08.096Z,85.52
2023-05-05T19:02:34.596Z,86.15
2023-05-05T19:05:01.388Z,86.12
2023-05-05T19:07:35.318Z,86.45
2023-05-05T19:10:04.365Z,86.54
2023-05-05T19:12:30.866Z,86.60
2023-05-05T19:14:57.582Z,86.43
2023-05-05T19:17:24.281Z,86.51
2023-05-05T19:19:51.469Z,86.37
2023-05-05T19:22:18.108Z,86.73
2023-05-05T19:24:44.592Z,87.10
2023-05-05T19:27:16.631Z,86.98
2023-05-05T19:29:43.740Z,87.31
2023-05-05T19:32:10.258Z,87.10
2023-05-05T19:34:36.913Z,87.06
2023-05-05T19:37:03.584Z,87.54
2023-05-05T19:39:30.169Z,87.31
2023-05-05T19:41:56.603Z,87.63
2023-05-05T19:44:23.774Z,87.46
2023-05-05T19:46:50.683Z,87.31
2023-05-05T19:49:17.427Z,87.22
2023-05-05T19:51:46.155Z,87.62
2023-05-05T19:54:12.697Z,87.76
2023-05-05T19:56:39.515Z,87.48
2023-05-05T19:59:06.430Z,87.57
2023-05-05T20:01:33.891Z,87.29
2023-05-05T20:04:00.800Z,87.11
2023-05-05T20:06:27.479Z,87.48
2023-05-05T20:08:55.400Z,87.40
2023-05-05T20:11:22.191Z,87.35
2023-05-05T20:13:49.995Z,87.29
2023-05-05T20:16:16.648Z,87.05
2023-05-05T20:18:43.568Z,87.41
2023-05-05T20:21:10.105Z,87.62
2023-05-05T20:23:36.960Z,87.44
2023-05-05T20:26:04.488Z,87.33
2023-05-05T20:28:31.766Z,87.73
2023-05-05T20:31:00.754Z,87.59
2023-05-05T20:33:28.340Z,87.46
2023-05-05T20:35:54.837Z,87.28
2023-05-05T20:38:21.297Z,87.30
2023-05-05T20:40:47.784Z,87.33
2023-05-05T20:43:14.474Z,87.89
2023-05-05T20:45:41.088Z,87.98
2023-05-05T20:48:09.853Z,87.56
2023-05-05T20:50:42.770Z,87.86
2023-05-05T20:53:11.305Z,88.18
2023-05-05T20:55:37.756Z,87.93
2023-05-05T20:58:05.364Z,87.87
2023-05-05T21:00:32.055Z,87.56
2023-05-05T21:02:59.024Z,87.88
2023-05-05T21:05:25.877Z,87.59
2023-05-05T21:07:53.591Z,87.92
2023-05-05T21:10:21.325Z,87.74
2023-05-05T21:12:47.908Z,87.61
2023-05-05T21:15:16.496Z,88.19
2023-05-05T21:17:43.094Z,87.85
2023-05-05T21:20:10.428Z,88.00
2023-05-05T21:22:37.122Z,87.85
2023-05-05T21:25:17.434Z,88.32
2023-05-05T21:27:44.240Z,88.58
2023-05-05T21:30:11.626Z,88.23
2023-05-05T21:32:39.830Z,88.08
2023-05-05T21:35:07.836Z,87.78
2023-05-05T21:37:37.839Z,88.05
2023-05-05T21:40:05.867Z,88.44
2023-05-05T21:42:32.313Z,88.01
2023-05-05T21:44:58.786Z,88.24
2023-05-05T21:47:26.794Z,88.53
2023-05-05T21:49:53.331Z,88.28
2023-05-05T21:52:19.745Z,88.17
2023-05-05T21:54:46.129Z,88.13
2023-05-05T21:57:12.572Z,88.10
2023-05-05T21:59:39.034Z,88.25
2023-05-05T22:02:05.656Z,88.43
2023-05-05T22:04:32.261Z,88.42
2023-05-05T22:06:58.694Z,88.07
2023-05-05T22:09:25.291Z,88.47
2023-05-05T22:11:51.945Z,88.40
2023-05-05T22:14:18.606Z,88.58
2023-05-05T22:16:45.311Z,88.25
2023-05-05T22:19:11.877Z,88.40
2023-05-05T22:21:38.356Z,88.51
2023-05-05T22:24:07.005Z,88.52
2023-05-05T22:26:33.656Z,88.65
2023-05-05T22:29:00.311Z,89.08
2023-05-05T22:31:26.868Z,89.06
2023-05-05T22:33:53.445Z,88.86
2023-05-05T22:36:20.033Z,89.28
2023-05-05T22:38:46.544Z,88.97
2023-05-05T22:41:13.894Z,89.51
2023-05-05T22:43:40.330Z,89.43
2023-05-05T22:46:06.809Z,89.54
2023-05-05T22:48:33.337Z,89.19
2023-05-05T22:50:59.930Z,89.40
2023-05-05T22:53:26.455Z,89.71
2023-05-05T22:55:52.983Z,89.95
2023-05-05T22:58:19.914Z,90.15
2023-05-05T23:00:46.426Z,89.97
2023-05-05T23:03:13.651Z,89.99
2023-05-05T23:05:40.139Z,89.85
2023-05-05T23:08:06.611Z,89.97
2023-05-05T23:10:33.103Z,89.62
2023-05-05T23:12:59.700Z,90.19
2023-05-05T23:15:26.304Z,90.61
2023-05-05T23:17:52.865Z,90.48
2023-05-05T23:20:19.569Z,90.40
2023-05-05T23:22:45.975Z,90.87
2023-05-05T23:25:13.778Z,90.49
2023-05-05T23:27:40.995Z,90.50
2023-05-05T23:30:09.110Z,90.46
2023-05-05T23:32:35.683Z,90.54
2023-05-05T23:35:02.292Z,90.58
2023-05-05T23:37:28.782Z,90.75
2023-05-05T23:39:56.376Z,90.95
2023-05-05T23:42:23.981Z,91.13
2023-05-05T23:44:51.793Z,91.24
2023-05-05T23:47:18.269Z,90.94
2023-05-05T23:49:44.798Z,91.31
2023-05-05T23:52:11.465Z,91.16
2023-05-05T23:54:38.042Z,91.20
2023-05-05T23:57:04.664Z,91.33
2023-05-05T23:59:31.138Z,91.37
